createdAt,value
2023-01-12T00:01:43.761Z,15.80
2023-01-12T00:04:13.457Z,15.77
2023-01-12T00:06:40.790Z,15.85
2023-01-12T00:09:08.087Z,16.00
2023-01-12T00:11:36.497Z,15.90
2023-01-12T00:14:05.023Z,15.73
2023-01-12T00:16:34.890Z,15.93
2023-01-12T00:19:02.659Z,16.05
2023-01-12T00:21:33.126Z,15.68
2023-01-12T00:24:00.055Z,15.80
2023-01-12T00:26:27.021Z,15.60
2023-01-12T00:28:54.589Z,15.80
2023-01-12T00:31:21.589Z,15.85
2023-01-12T00:33:48.558Z,16.05
2023-01-12T00:36:17.894Z,15.75
2023-01-12T00:38:45.216Z,15.70
2023-01-12T00:41:32.189Z,16.05
2023-01-12T00:44:17.798Z,15.63
2023-01-12T00:46:45.849Z,15.73
2023-01-12T00:49:12.860Z,15.48
2023-01-12T00:51:40.056Z,15.90
2023-01-12T00:54:08.502Z,15.55
2023-01-12T00:56:36.631Z,15.82
2023-01-12T00:59:04.643Z,15.90
2023-01-12T01:01:33.616Z,16.20
2023-01-12T01:04:01.143Z,15.82
2023-01-12T01:06:28.230Z,16.00
2023-01-12T01:08:55.250Z,15.80
2023-01-12T01:11:22.666Z,15.93
2023-01-12T01:13:50.257Z,15.80
2023-01-12T01:16:18.341Z,15.82
2023-01-12T01:18:45.441Z,15.75
2023-01-12T01:21:13.484Z,15.77
2023-01-12T01:23:41.891Z,15.98
2023-01-12T01:26:14.594Z,15.85
2023-01-12T01:28:42.318Z,16.10
2023-01-12T01:31:23.065Z,15.85
2023-01-12T01:33:51.264Z,16.23
2023-01-12T01:36:19.361Z,15.95
2023-01-12T01:38:47.745Z,15.90
2023-01-12T01:41:22.805Z,15.77
2023-01-12T01:44:03.261Z,15.73
2023-01-12T01:46:34.270Z,15.80
2023-01-12T01:49:21.318Z,15.90
2023-01-12T01:51:48.534Z,15.65
2023-01-12T01:54:28.331Z,16.00
2023-01-12T01:56:56.966Z,15.65
2023-01-12T01:59:28.493Z,15.90
2023-01-12T02:01:55.737Z,16.00
2023-01-12T02:04:23.902Z,15.70
2023-01-12T02:06:51.026Z,15.63
2023-01-12T02:09:28.261Z,16.00
2023-01-12T02:12:14.868Z,16.30
2023-01-12T02:15:01.793Z,15.93
2023-01-12T02:17:53.213Z,16.02
2023-01-12T02:20:29.355Z,15.80
2023-01-12T02:23:08.148Z,15.82
2023-01-12T02:26:08.985Z,15.65
2023-01-12T02:29:00.925Z,16.17
2023-01-12T02:31:39.644Z,16.08
2023-01-12T02:34:15.582Z,16.27
2023-01-12T02:37:10.571Z,16.25
2023-01-12T02:40:03.480Z,16.13
2023-01-12T02:42:47.752Z,16.10
2023-01-12T02:48:11.343Z,16.02
2023-01-12T02:50:47.131Z,16.35
2023-01-12T02:53:38.699Z,15.85
2023-01-12T02:56:07.713Z,15.90
2023-01-12T02:58:38.785Z,16.20
2023-01-12T03:01:07.509Z,16.38
2023-01-12T03:03:35.335Z,16.08
2023-01-12T03:06:02.369Z,16.27
2023-01-12T03:08:32.407Z,16.00
2023-01-12T03:11:04.875Z,15.95
2023-01-12T03:13:35.499Z,15.88
2023-01-12T03:16:04.051Z,15.68
2023-01-12T03:18:34.919Z,16.23
2023-01-12T03:21:09.069Z,16.27
2023-01-12T03:23:46.211Z,15.82
2023-01-12T03:26:15.773Z,15.32
2023-01-12T03:28:49.118Z,15.50
2023-01-12T03:31:16.122Z,15.57
2023-01-12T03:33:45.056Z,15.50
2023-01-12T03:36:29.771Z,15.48
2023-01-12T03:39:20.838Z,15.40
2023-01-12T03:42:13.010Z,15.60
2023-01-12T03:44:59.660Z,15.38
2023-01-12T03:47:29.934Z,15.43
2023-01-12T03:50:08.951Z,15.60
2023-01-12T03:52:39.621Z,15.98
2023-01-12T03:55:09.886Z,15.65
2023-01-12T03:57:38.638Z,15.93
2023-01-12T04:00:13.352Z,16.15
2023-01-12T04:02:43.149Z,16.00
2023-01-12T04:05:12.178Z,16.30
2023-01-12T04:07:39.266Z,16.42
2023-01-12T04:10:07.124Z,16.33
2023-01-12T04:12:34.203Z,16.25
2023-01-12T04:15:01.232Z,16.30
2023-01-12T04:17:29.324Z,16.38
2023-01-12T04:19:56.403Z,16.60
2023-01-12T04:22:42.054Z,16.55
2023-01-12T04:25:13.367Z,16.10
2023-01-12T04:27:48.996Z,16.20
2023-01-12T04:30:18.918Z,16.17
2023-01-12T04:32:46.591Z,16.70
2023-01-12T04:35:14.091Z,16.75
2023-01-12T04:37:41.153Z,16.52
2023-01-12T04:40:10.140Z,16.60
2023-01-12T04:42:55.800Z,16.70
2023-01-12T04:45:22.991Z,17.05
2023-01-12T04:47:49.982Z,17.17
2023-01-12T04:50:17.047Z,17.10
2023-01-12T04:52:44.052Z,17.10
2023-01-12T04:55:11.150Z,17.25
2023-01-12T04:57:38.196Z,16.45
2023-01-12T05:00:06.167Z,16.70
2023-01-12T05:02:33.107Z,16.85
2023-01-12T05:05:00.067Z,18.00
2023-01-12T05:07:27.063Z,19.20
2023-01-12T05:10:12.322Z,17.20
2023-01-12T05:12:39.329Z,17.25
2023-01-12T05:15:06.967Z,17.20
2023-01-12T05:17:33.884Z,16.80
2023-01-12T05:20:01.182Z,16.80
2023-01-12T05:22:28.417Z,16.50
2023-01-12T05:24:55.420Z,17.00
2023-01-12T05:27:22.461Z,16.55
2023-01-12T05:29:49.638Z,16.70
2023-01-12T05:32:16.705Z,17.30
2023-01-12T05:34:43.672Z,18.30
2023-01-12T05:37:10.703Z,18.00
2023-01-12T05:39:37.672Z,17.38
2023-01-12T05:42:23.155Z,17.08
2023-01-12T05:44:50.181Z,18.95
2023-01-12T05:47:17.167Z,17.90
2023-01-12T05:49:44.153Z,17.20
2023-01-12T05:52:11.149Z,17.33
2023-01-12T05:54:38.101Z,19.52
2023-01-12T05:57:05.035Z,17.70
2023-01-12T05:59:32.112Z,18.60
2023-01-12T06:01:59.100Z,18.45
2023-01-12T06:04:26.186Z,19.23
2023-01-12T06:06:53.439Z,18.60
2023-01-12T06:09:20.443Z,18.08
2023-01-12T06:12:05.833Z,17.08
2023-01-12T06:14:32.946Z,17.92
2023-01-12T06:16:59.920Z,17.63
2023-01-12T06:19:27.440Z,17.17
2023-01-12T06:21:55.316Z,17.98
2023-01-12T06:24:22.379Z,17.83
2023-01-12T06:26:49.342Z,17.48
2023-01-12T06:29:16.315Z,17.92
2023-01-12T06:31:44.041Z,19.13
2023-01-12T06:34:12.200Z,19.30
2023-01-12T06:36:39.944Z,19.00
2023-01-12T06:39:06.957Z,19.73
2023-01-12T06:41:53.605Z,19.35
2023-01-12T06:44:20.676Z,18.98
2023-01-12T06:46:47.845Z,19.08
2023-01-12T06:49:16.718Z,19.30
2023-01-12T06:51:44.107Z,19.65
2023-01-12T06:54:11.102Z,21.90
2023-01-12T06:56:38.019Z,19.50
2023-01-12T06:59:05.016Z,18.17
2023-01-12T07:01:32.199Z,19.70
2023-01-12T07:03:59.212Z,18.45
2023-01-12T07:06:26.197Z,17.63
2023-01-12T07:08:53.183Z,18.95
2023-01-12T07:11:20.161Z,18.63
2023-01-12T07:13:47.125Z,17.98
2023-01-12T07:16:14.172Z,18.23
2023-01-12T07:18:41.185Z,18.35
2023-01-12T07:21:10.185Z,17.52
2023-01-12T07:23:43.610Z,17.60
2023-01-12T07:26:11.521Z,18.17
2023-01-12T07:28:38.874Z,17.50
2023-01-12T07:31:06.969Z,17.42
2023-01-12T07:33:35.173Z,17.25
2023-01-12T07:36:02.610Z,17.05
2023-01-12T07:38:30.280Z,17.45
2023-01-12T07:41:03.919Z,16.67
2023-01-12T07:43:33.746Z,17.05
2023-01-12T07:46:01.091Z,16.98
2023-01-12T07:48:28.058Z,16.85
2023-01-12T07:50:55.249Z,17.08
2023-01-12T07:53:22.349Z,17.10
2023-01-12T07:55:49.493Z,16.52
2023-01-12T07:58:16.573Z,16.45
2023-01-12T08:00:43.634Z,16.52
2023-01-12T08:03:12.719Z,16.08
2023-01-12T08:05:40.311Z,17.85
2023-01-12T08:08:07.790Z,17.40
2023-01-12T08:10:34.935Z,16.52
2023-01-12T08:13:02.186Z,16.63
2023-01-12T08:15:36.231Z,16.60
2023-01-12T08:20:36.203Z,16.23
2023-01-12T08:23:13.232Z,16.85
2023-01-12T08:25:45.000Z,16.80
2023-01-12T08:28:19.443Z,16.63
2023-01-12T08:30:48.910Z,16.20
2023-01-12T08:33:16.981Z,16.42
2023-01-12T08:35:46.464Z,16.20
2023-01-12T08:38:13.779Z,16.27
2023-01-12T08:40:59.349Z,16.17
2023-01-12T08:43:44.823Z,15.60
2023-01-12T08:46:12.059Z,16.00
2023-01-12T08:48:39.786Z,16.17
2023-01-12T08:51:08.244Z,16.08
2023-01-12T08:53:35.726Z,15.85
2023-01-12T08:56:03.438Z,15.85
2023-01-12T08:58:32.729Z,16.25
2023-01-12T09:01:07.983Z,16.77
2023-01-12T09:03:36.125Z,16.30
2023-01-12T09:06:13.013Z,16.65
2023-01-12T09:08:40.285Z,16.00
2023-01-12T09:11:08.612Z,15.60
2023-01-12T09:13:36.141Z,15.68
2023-01-12T09:16:12.743Z,16.13
2023-01-12T09:18:40.877Z,16.05
2023-01-12T09:21:10.739Z,15.80
2023-01-12T09:23:37.870Z,15.93
2023-01-12T09:26:10.259Z,15.77
2023-01-12T09:28:37.302Z,15.63
2023-01-12T09:31:10.527Z,16.48
2023-01-12T09:33:38.936Z,16.15
2023-01-12T09:36:09.875Z,15.85
2023-01-12T09:38:39.154Z,15.43
2023-01-12T09:41:44.836Z,15.77
2023-01-12T09:44:38.058Z,15.63
2023-01-12T09:47:10.163Z,15.77
2023-01-12T09:49:46.135Z,15.30
2023-01-12T09:52:25.138Z,15.32
2023-01-12T09:54:55.489Z,15.05
2023-01-12T09:57:37.177Z,15.13
2023-01-12T10:00:09.972Z,15.45
2023-01-12T10:02:40.165Z,15.80
2023-01-12T10:05:46.189Z,15.77
2023-01-12T10:08:33.908Z,15.95
2023-01-12T10:11:13.167Z,15.60
2023-01-12T10:13:55.695Z,16.02
2023-01-12T10:16:50.527Z,15.73
2023-01-12T10:19:38.927Z,15.90
2023-01-12T10:22:39.592Z,15.25
2023-01-12T10:25:33.274Z,15.10
2023-01-12T10:28:06.502Z,15.15
2023-01-12T10:30:39.538Z,15.38
2023-01-12T10:33:23.161Z,15.30
2023-01-12T10:35:52.924Z,15.65
2023-01-12T10:38:38.676Z,16.98
2023-01-12T10:41:17.690Z,16.10
2023-01-12T10:43:47.095Z,15.98
2023-01-12T10:46:18.162Z,15.15
2023-01-12T10:48:47.545Z,15.52
2023-01-12T10:51:23.302Z,15.05
2023-01-12T10:53:56.175Z,14.90
2023-01-12T10:56:31.339Z,14.75
2023-01-12T10:59:01.003Z,14.80
2023-01-12T11:02:03.006Z,15.15
2023-01-12T11:04:31.000Z,15.30
2023-01-12T11:07:14.908Z,14.85
2023-01-12T11:09:43.981Z,14.70
2023-01-12T11:12:33.685Z,14.77
2023-01-12T11:15:05.254Z,14.60
2023-01-12T11:17:59.295Z,15.65
2023-01-12T11:20:50.466Z,15.90
2023-01-12T11:23:23.072Z,15.50
2023-01-12T11:25:52.676Z,16.20
2023-01-12T11:28:26.072Z,15.13
2023-01-12T11:31:00.451Z,14.90
2023-01-12T11:33:34.900Z,15.25
2023-01-12T11:36:39.955Z,14.70
2023-01-12T11:42:09.790Z,14.50
2023-01-12T11:45:02.544Z,14.90
2023-01-12T11:47:45.295Z,14.65
2023-01-12T11:50:29.229Z,14.68
2023-01-12T11:52:57.038Z,15.07
2023-01-12T11:55:46.774Z,14.90
2023-01-12T11:58:22.405Z,14.93
2023-01-12T12:00:55.387Z,14.45
2023-01-12T12:03:31.364Z,14.35
2023-01-12T12:06:47.728Z,14.45
2023-01-12T12:09:32.077Z,14.68
2023-01-12T12:12:22.961Z,14.90
2023-01-12T12:15:19.288Z,14.85
2023-01-12T12:18:11.070Z,14.77
2023-01-12T12:20:51.356Z,15.27
2023-01-12T12:23:39.378Z,15.32
2023-01-12T12:26:35.374Z,14.90
2023-01-12T12:29:07.555Z,15.43
2023-01-12T12:31:47.430Z,14.68
2023-01-12T12:34:33.087Z,13.82
2023-01-12T12:37:22.636Z,14.85
2023-01-12T12:39:57.347Z,13.93
2023-01-12T12:43:37.010Z,14.77
2023-01-12T12:46:15.587Z,14.07
2023-01-12T12:49:00.336Z,15.45
2023-01-12T12:51:30.949Z,15.10
2023-01-12T12:53:59.265Z,14.77
2023-01-12T12:56:28.525Z,14.60
2023-01-12T12:58:57.601Z,15.27
2023-01-12T13:01:24.742Z,14.45
2023-01-12T13:03:54.094Z,14.55
2023-01-12T13:06:23.809Z,14.48
2023-01-12T13:08:54.224Z,14.18
2023-01-12T13:11:46.967Z,14.30
2023-01-12T13:14:30.197Z,14.00
2023-01-12T13:17:22.821Z,14.30
2023-01-12T13:20:08.269Z,13.60
2023-01-12T13:22:50.678Z,13.60
2023-01-12T13:25:20.595Z,13.63
2023-01-12T13:28:17.193Z,13.80
2023-01-12T13:30:55.636Z,14.43
2023-01-12T13:33:26.237Z,13.95
2023-01-12T13:35:53.232Z,14.00
2023-01-12T13:38:51.910Z,14.27
2023-01-12T13:41:50.748Z,14.30
2023-01-12T13:44:33.733Z,14.30
2023-01-12T13:47:14.238Z,15.10
2023-01-12T13:49:52.841Z,13.73
2023-01-12T13:52:32.577Z,13.90
2023-01-12T13:55:00.225Z,13.88
2023-01-12T13:57:29.944Z,14.35
2023-01-12T14:00:04.986Z,16.60
2023-01-12T14:02:32.994Z,15.00
2023-01-12T14:05:21.573Z,15.25
2023-01-12T14:08:01.951Z,14.57
2023-01-12T14:10:42.877Z,14.15
2023-01-12T14:13:31.489Z,14.40
2023-01-12T14:16:24.323Z,14.45
2023-01-12T14:18:51.403Z,14.48
2023-01-12T14:21:24.392Z,14.68
2023-01-12T14:23:51.765Z,14.07
2023-01-12T14:26:24.147Z,13.88
2023-01-12T14:28:52.643Z,14.70
2023-01-12T14:31:37.048Z,14.07
2023-01-12T14:36:41.411Z,14.18
2023-01-12T14:39:15.187Z,14.20
2023-01-12T14:42:08.665Z,13.90
2023-01-12T14:44:57.659Z,13.88
2023-01-12T14:47:30.517Z,14.43
2023-01-12T14:50:13.994Z,14.00
2023-01-12T14:52:43.249Z,14.43
2023-01-12T14:55:20.674Z,14.40
2023-01-12T14:57:50.755Z,14.50
2023-01-12T15:00:27.134Z,14.60
2023-01-12T15:02:56.707Z,14.50
2023-01-12T15:05:29.152Z,14.35
2023-01-12T15:08:09.568Z,14.45
2023-01-12T15:10:39.753Z,13.50
2023-01-12T15:13:21.731Z,14.90
2023-01-12T15:16:10.646Z,13.88
2023-01-12T15:18:56.814Z,14.07
2023-01-12T15:21:43.452Z,14.13
2023-01-12T15:24:36.385Z,14.38
2023-01-12T15:27:06.724Z,14.70
2023-01-12T15:29:34.132Z,17.48
2023-01-12T15:32:02.228Z,15.45
2023-01-12T15:34:29.784Z,16.73
2023-01-12T15:36:56.759Z,14.55
2023-01-12T15:39:23.886Z,14.60
2023-01-12T15:42:09.422Z,14.95
2023-01-12T15:44:38.280Z,14.77
2023-01-12T15:47:07.441Z,14.85
2023-01-12T15:49:34.432Z,15.00
2023-01-12T15:52:01.388Z,14.68
2023-01-12T15:54:28.389Z,14.70
2023-01-12T15:56:57.463Z,14.57
2023-01-12T15:59:24.427Z,14.32
2023-01-12T16:01:51.518Z,14.00
2023-01-12T16:07:10.898Z,14.40
2023-01-12T16:09:37.896Z,17.67
2023-01-12T16:12:05.164Z,14.73
2023-01-12T16:14:32.122Z,14.60
2023-01-12T16:16:59.146Z,14.85
2023-01-12T16:19:27.778Z,15.80
2023-01-12T16:21:55.257Z,17.30
2023-01-12T16:24:24.296Z,15.18
2023-01-12T16:26:51.292Z,14.85
2023-01-12T16:29:19.356Z,15.65
2023-01-12T16:31:46.467Z,15.32
2023-01-12T16:34:13.542Z,14.70
2023-01-12T16:36:41.515Z,14.75
2023-01-12T16:39:10.701Z,15.20
2023-01-12T16:41:37.667Z,14.52
2023-01-12T16:44:04.803Z,14.65
2023-01-12T16:46:32.049Z,15.07
2023-01-12T16:48:59.135Z,14.70
2023-01-12T16:51:26.141Z,14.57
2023-01-12T16:53:55.219Z,14.88
2023-01-12T16:56:22.293Z,14.45
2023-01-12T16:58:49.295Z,14.15
2023-01-12T17:01:21.206Z,14.43
2023-01-12T17:03:50.813Z,14.00
2023-01-12T17:06:20.997Z,14.60
2023-01-12T17:08:48.567Z,14.05
2023-01-12T17:11:21.173Z,14.63
2023-01-12T17:13:52.386Z,14.18
2023-01-12T17:16:20.324Z,14.32
2023-01-12T17:18:50.717Z,14.40
2023-01-12T17:21:18.949Z,14.27
2023-01-12T17:23:46.251Z,14.18
2023-01-12T17:26:17.811Z,14.10
2023-01-12T17:28:46.263Z,13.88
2023-01-12T17:31:16.136Z,14.57
2023-01-12T17:33:43.507Z,14.40
2023-01-12T17:36:12.042Z,14.50
2023-01-12T17:38:40.257Z,14.30
2023-01-12T17:41:35.215Z,13.93
2023-01-12T17:44:04.547Z,14.13
2023-01-12T17:46:32.249Z,14.27
2023-01-12T17:49:01.534Z,14.90
2023-01-12T17:51:28.876Z,14.40
2023-01-12T17:53:58.044Z,14.07
2023-01-12T17:56:26.229Z,14.00
2023-01-12T17:58:54.846Z,14.50
2023-01-12T18:01:23.820Z,13.90
2023-01-12T18:03:51.037Z,13.85
2023-01-12T18:06:25.815Z,13.85
2023-01-12T18:08:56.539Z,13.90
2023-01-12T18:11:24.525Z,14.00
2023-01-12T18:13:52.103Z,13.80
2023-01-12T18:16:19.588Z,13.80
2023-01-12T18:18:46.754Z,13.90
2023-01-12T18:21:17.770Z,13.80
2023-01-12T18:23:44.767Z,14.25
2023-01-12T18:26:14.384Z,14.30
2023-01-12T18:28:41.968Z,14.10
2023-01-12T18:31:14.667Z,13.90
2023-01-12T18:33:42.297Z,13.90
2023-01-12T18:36:11.381Z,13.82
2023-01-12T18:38:44.771Z,13.85
2023-01-12T18:41:31.469Z,13.63
2023-01-12T18:44:00.485Z,14.20
2023-01-12T18:46:46.201Z,14.35
2023-01-12T18:49:13.189Z,14.38
2023-01-12T18:51:58.771Z,14.55
2023-01-12T18:54:25.703Z,14.27
2023-01-12T18:56:52.853Z,14.27
2023-01-12T18:59:19.857Z,14.18
2023-01-12T19:01:46.950Z,14.05
2023-01-12T19:04:15.583Z,14.25
2023-01-12T19:06:47.354Z,14.40
2023-01-12T19:09:33.034Z,14.30
2023-01-12T19:12:01.569Z,14.35
2023-01-12T19:14:47.188Z,14.40
2023-01-12T19:17:32.837Z,14.98
2023-01-12T19:20:01.876Z,14.95
2023-01-12T19:22:47.716Z,15.07
2023-01-12T19:25:35.289Z,14.80
2023-01-12T19:28:21.974Z,15.38
2023-01-12T19:30:49.007Z,16.27
2023-01-12T19:33:16.915Z,15.25
2023-01-12T19:35:45.372Z,15.82
2023-01-12T19:38:14.153Z,17.23
2023-01-12T19:40:48.727Z,16.70
2023-01-12T19:43:20.456Z,17.60
2023-01-12T19:45:49.832Z,16.65
2023-01-12T19:48:18.508Z,17.77
2023-01-12T19:50:45.987Z,17.60
2023-01-12T19:53:21.630Z,15.98
2023-01-12T19:55:52.745Z,16.90
2023-01-12T19:58:22.317Z,16.63
2023-01-12T20:00:50.500Z,15.57
2023-01-12T20:03:20.270Z,15.52
2023-01-12T20:05:51.015Z,14.70
2023-01-12T20:08:22.187Z,14.75
2023-01-12T20:10:59.467Z,14.80
2023-01-12T20:13:27.499Z,15.82
2023-01-12T20:15:56.831Z,15.30
2023-01-12T20:18:24.543Z,14.82
2023-01-12T20:20:53.258Z,16.65
2023-01-12T20:23:20.463Z,14.15
2023-01-12T20:25:47.629Z,14.48
2023-01-12T20:28:15.226Z,14.48
2023-01-12T20:30:43.359Z,14.52
2023-01-12T20:33:11.319Z,14.05
2023-01-12T20:35:43.255Z,13.93
2023-01-12T20:38:15.617Z,13.82
2023-01-12T20:40:44.412Z,14.32
2023-01-12T20:43:11.513Z,15.32
2023-01-12T20:45:41.944Z,15.13
2023-01-12T20:48:11.264Z,14.25
2023-01-12T20:50:44.013Z,14.32
2023-01-12T20:53:11.529Z,13.68
2023-01-12T20:55:43.852Z,13.80
2023-01-12T20:58:11.254Z,13.93
2023-01-12T21:00:38.839Z,13.75
2023-01-12T21:03:05.878Z,13.70
2023-01-12T21:05:34.967Z,13.32
2023-01-12T21:08:07.995Z,13.32
2023-01-12T21:10:36.126Z,13.63
2023-01-12T21:13:03.080Z,13.60
2023-01-12T21:15:30.018Z,13.63
2023-01-12T21:17:57.101Z,13.85
2023-01-12T21:20:24.110Z,13.90
2023-01-12T21:22:51.865Z,13.48
2023-01-12T21:25:18.872Z,13.30
2023-01-12T21:27:45.828Z,13.75
2023-01-12T21:30:12.929Z,13.85
2023-01-12T21:32:40.783Z,13.93
2023-01-12T21:35:08.024Z,13.75
2023-01-12T21:37:35.012Z,13.82
2023-01-12T21:40:01.940Z,14.00
2023-01-12T21:42:47.561Z,14.10
2023-01-12T21:45:14.635Z,14.63
2023-01-12T21:47:41.717Z,14.35
2023-01-12T21:50:09.541Z,14.75
2023-01-12T21:52:36.481Z,15.07
2023-01-12T21:55:03.882Z,15.07
2023-01-12T21:57:30.874Z,16.05
2023-01-12T21:59:57.860Z,15.68
2023-01-12T22:02:25.610Z,14.60
2023-01-12T22:04:52.567Z,14.65
2023-01-12T22:07:19.588Z,14.75
2023-01-12T22:09:46.512Z,15.30
2023-01-12T22:12:13.537Z,14.60
2023-01-12T22:14:40.520Z,14.65
2023-01-12T22:17:07.480Z,14.30
2023-01-12T22:19:34.452Z,14.52
2023-01-12T22:22:01.579Z,14.98
2023-01-12T22:24:28.575Z,14.95
2023-01-12T22:26:55.601Z,15.13
2023-01-12T22:29:22.621Z,15.85
2023-01-12T22:31:49.663Z,15.50
2023-01-12T22:34:16.689Z,14.90
2023-01-12T22:36:43.756Z,14.57
2023-01-12T22:39:14.165Z,14.65
2023-01-12T22:41:41.405Z,14.68
2023-01-12T22:44:08.489Z,14.60
2023-01-12T22:46:37.024Z,14.45
2023-01-12T22:49:04.221Z,14.63
2023-01-12T22:51:31.429Z,14.35
2023-01-12T22:53:58.480Z,14.45
2023-01-12T22:56:25.699Z,14.48
2023-01-12T22:58:55.211Z,14.68
2023-01-12T23:01:25.554Z,14.57
2023-01-12T23:03:54.598Z,14.65
2023-01-12T23:06:22.809Z,14.10
2023-01-12T23:08:50.385Z,14.43
2023-01-12T23:11:23.088Z,14.63
2023-01-12T23:13:50.953Z,14.38
2023-01-12T23:16:19.175Z,14.10
2023-01-12T23:18:47.603Z,14.07
2023-01-12T23:21:16.001Z,14.02
2023-01-12T23:23:45.667Z,14.23
2023-01-12T23:26:15.318Z,13.98
2023-01-12T23:28:49.923Z,14.02
2023-01-12T23:31:21.383Z,13.73
2023-01-12T23:33:49.553Z,14.10
2023-01-12T23:36:19.611Z,14.23
2023-01-12T23:38:46.914Z,14.02
2023-01-12T23:41:22.199Z,14.10
2023-01-12T23:43:50.734Z,14.00
2023-01-12T23:46:22.052Z,14.20
2023-01-12T23:48:50.454Z,14.20
2023-01-12T23:51:17.491Z,14.38
2023-01-12T23:53:45.377Z,14.20
2023-01-12T23:56:14.353Z,14.10
2023-01-12T23:58:42.206Z,13.85
